OBBI Airport Information

Runway Information
Runway 12L Length 12979 ft width 197 ft
Elevation 6 ft Threshold 1000 ft Heading 123
Runway 30R Length 12979 ft Width 197 ft
Elevation 6 ft Threshold 1000 ft Heading 303
Runway 12R Length 8302 ft width 148 ft
Elevation 7 ft Threshold 1000 ft Heading 123
Runway 30L Length 8302 ft Width 148 ft
Elevation 6 ft Threshold 395 ft Heading 303
Airport Frequencies
Type APP Name APP Frequency 127.85 MHZ
Type ATIS Name ATIS Frequency 127.2 MHZ
Type GND Name GND Frequency 121.675 MHZ
Type OPS Name ATOC Frequency 32.175 MHZ
Type TWR Name TWR Frequency 118.5 MHZ
Airport Navaids
Type VOR-DME Name Bahrain Frequency 115300 KHZ
Type NDB Name Bahrain Frequency 395 KHZ
Airport Weather Information & NOTAM
ADDS - METARS form results

(1912 UTC 24 May 2022)
Data provider http://aviationweather.gov/metar/data/
 
METAR text: OBBI 241900Z 32015KT 5000 DU NSC 28/18 Q1006 NOSIG
Conditions at: OBBI (BAHRAIN INTL ARP, BH) observed 1900 UTC 24 May 2022
Temperature: 28.0°C (82°F)
Dewpoint: 18.0°C (64°F) [RH = 55%]
Pressure (altimeter): 29.70 inches Hg (1006.0 mb)
Winds: from the NW (320 degrees) at 17 MPH (15 knots; 7.7 m/s)
Visibility: 3 miles ( 5 km)
Ceiling: at least 12,000 feet AGL
Clouds: sky clear below 12,000 feet AGL
Weather: DU  (widespread dust)

METAR text: OBBI 241830Z 32014KT 5000 DU NSC 29/18 Q1006 NOSIG
Conditions at: OBBI (BAHRAIN INTL ARP, BH) observed 1830 UTC 24 May 2022
Temperature: 29.0°C (84°F)
Dewpoint: 18.0°C (64°F) [RH = 52%]
Pressure (altimeter): 29.70 inches Hg (1006.0 mb)
Winds: from the NW (320 degrees) at 16 MPH (14 knots; 7.2 m/s)
Visibility: 3 miles ( 5 km)
Ceiling: at least 12,000 feet AGL
Clouds: sky clear below 12,000 feet AGL
Weather: DU  (widespread dust)

Forecast for: OBBI (BAHRAIN INTL ARP, BH)
Text: TAF OBBI 241700Z 2418/2600 34018KT 6000 NSC
Forecast period: 1800 UTC 24 May 2022 to 1500 UTC 25 May 2022
Forecast type: FROM: standard forecast or significant change
Winds: from the NNW (340 degrees) at 21 MPH (18 knots; 9.3 m/s)
Visibility: 4 miles (6 km)
Ceiling: unknown
Clouds: missing
Weather: no significant weather forecast for this period
Text: PROB30
Forecast period: 1800 to 2200 UTC 24 May 2022
Forecast type: TEMPORARY: The following changes expected for less than half the time period
Visibility: 2.80 miles (4.51 km)
Ceiling: unknown
Clouds: missing
Weather: DU  (widespread dust)
Text: TEMPO 2418/2422 4500 DU
Forecast period: 1500 UTC 25 May 2022 to 0000 UTC 26 May 2022
Forecast type: BECOMING: Conditions expected to become as follows by 1700 UTC 25 May 2022
Winds: from the NW (320 degrees) at 9 MPH (8 knots; 4.1 m/s)
Visibility: 6 or more miles (10+ km)
Ceiling: unknown
Clouds: missing
Weather: NSW  (no significant weather)